Time;durP1;ratioP1;P1;durP2;ratioP2;P2;SDS_P1;SDS_P2;PMS_P1;PMS_P2;Temp;Humidity;BMP_temperature;BMP_pressure;BME280_temperature;BME280_humidity;BME280_pressure;Samples;Min_cycle;Max_cycle;Signal;HPM_P1;HPM_P2
2023/06/20 00:00:07;;;;;;;16.47;11.93;;;;;;;;;;4990724;28;20680;-66
2023/06/20 00:02:34;;;;;;;16.67;11.73;;;;;;;;;;5002023;28;20214;-66
2023/06/20 00:05:02;;;;;;;12.83;11.10;;;;;;;;;;5007482;28;20192;-69
2023/06/20 00:07:29;;;;;;;14.93;10.90;;;;;;;;;;4992829;28;20218;-66
2023/06/20 00:09:56;;;;;;;14.57;12.53;;;;;;;;;;5008817;28;20207;-66
2023/06/20 00:12:22;;;;;;;15.40;12.13;;;;;;;;;;5009387;28;20187;-66
2023/06/20 00:14:49;;;;;;;15.70;11.67;;;;;;;;;;5008976;28;20192;-66
2023/06/20 00:17:16;;;;;;;14.43;11.63;;;;;;;;;;5008714;28;20334;-66
2023/06/20 00:19:43;;;;;;;12.00;10.90;;;;;;;;;;5003186;28;20199;-66
2023/06/20 00:22:10;;;;;;;12.50;11.20;;;;;;;;;;5006977;28;20670;-66
2023/06/20 00:24:37;;;;;;;12.93;11.53;;;;;;;;;;5006162;28;20267;-66
2023/06/20 00:27:04;;;;;;;13.37;11.70;;;;;;;;;;4990270;28;20213;-66
2023/06/20 00:29:50;;;;;;;15.90;11.67;;;;;;;;;;4989409;28;20691;-68
2023/06/20 00:32:17;;;;;;;15.50;12.30;;;;;;;;;;4994310;28;20208;-65
2023/06/20 00:34:44;;;;;;;13.03;11.30;;;;;;;;;;4998132;28;20188;-65
2023/06/20 00:37:10;;;;;;;15.03;11.33;;;;;;;;;;4991469;28;20212;-66
2023/06/20 00:39:37;;;;;;;13.80;11.63;;;;;;;;;;4988013;28;20551;-68
2023/06/20 00:42:05;;;;;;;11.03;9.93;;;;;;;;;;4975448;28;20212;-67
2023/06/20 00:44:32;;;;;;;12.20;10.90;;;;;;;;;;4992002;28;20220;-67
2023/06/20 00:46:59;;;;;;;12.77;11.37;;;;;;;;;;4989424;28;20193;-67
2023/06/20 00:49:25;;;;;;;16.23;12.90;;;;;;;;;;4989907;28;20236;-68
2023/06/20 00:51:52;;;;;;;13.50;12.07;;;;;;;;;;4971811;28;20193;-67
2023/06/20 00:54:21;;;;;;;16.43;12.83;;;;;;;;;;4993260;28;20232;-68
2023/06/20 00:57:05;;;;;;;13.53;12.10;;;;;;;;;;4984927;28;20274;-67
2023/06/20 00:59:31;;;;;;;14.23;12.40;;;;;;;;;;5006706;28;20733;-68
2023/06/20 01:01:58;;;;;;;14.57;12.40;;;;;;;;;;5007865;28;20250;-67
2023/06/20 01:04:25;;;;;;;16.80;14.27;;;;;;;;;;4979125;28;20196;-68
2023/06/20 01:06:54;;;;;;;13.97;12.50;;;;;;;;;;4990006;28;20226;-67
2023/06/20 01:09:26;;;;;;;15.20;12.80;;;;;;;;;;4989927;28;20196;-67
2023/06/20 01:12:02;;;;;;;17.60;14.43;;;;;;;;;;4999900;28;20225;-68
2023/06/20 01:14:53;;;;;;;17.90;13.60;;;;;;;;;;4995484;28;20263;-67
2023/06/20 01:17:21;;;;;;;16.87;13.67;;;;;;;;;;4996706;28;20232;-67
2023/06/20 01:19:54;;;;;;;17.87;13.67;;;;;;;;;;4970993;28;20247;-67
2023/06/20 01:22:56;;;;;;;15.80;12.10;;;;;;;;;;4971479;28;20200;-67
2023/06/20 01:25:33;;;;;;;15.23;12.63;;;;;;;;;;4940382;28;20204;-67
2023/06/20 01:28:04;;;;;;;13.57;12.17;;;;;;;;;;4987024;28;20231;-67
2023/06/20 01:30:53;;;;;;;15.93;14.33;;;;;;;;;;4967904;28;20209;-67
2023/06/20 01:33:22;;;;;;;18.30;12.37;;;;;;;;;;4952290;28;20201;-67
2023/06/20 01:36:07;;;;;;;15.57;13.07;;;;;;;;;;4989041;28;20568;-66
2023/06/20 01:38:34;;;;;;;15.03;13.47;;;;;;;;;;4970497;28;20739;-67
2023/06/20 01:41:02;;;;;;;16.60;13.90;;;;;;;;;;4968274;28;20201;-67
2023/06/20 02:15:52;;;;;;;14.10;12.60;;;;;;;;;;4984449;28;20219;-67
2023/06/20 02:18:19;;;;;;;14.77;13.20;;;;;;;;;;5010271;28;20274;-67
2023/06/20 02:20:50;;;;;;;14.70;13.03;;;;;;;;;;4994238;28;20695;-67
2023/06/20 02:23:29;;;;;;;14.87;13.13;;;;;;;;;;5011610;28;20260;-67
2023/06/20 02:25:56;;;;;;;14.27;12.77;;;;;;;;;;5010957;28;20279;-67
2023/06/20 02:28:24;;;;;;;16.33;12.80;;;;;;;;;;4993193;28;20250;-68
2023/06/20 02:30:51;;;;;;;13.27;11.97;;;;;;;;;;5011831;28;20254;-67
2023/06/20 02:33:20;;;;;;;14.37;12.83;;;;;;;;;;4984730;28;20287;-66
2023/06/20 02:35:47;;;;;;;16.63;12.70;;;;;;;;;;4974922;28;20204;-66
2023/06/20 02:38:14;;;;;;;15.43;13.27;;;;;;;;;;4974654;28;20189;-66
2023/06/20 02:40:58;;;;;;;14.27;12.63;;;;;;;;;;4991734;28;20211;-66
2023/06/20 02:43:25;;;;;;;17.13;14.17;;;;;;;;;;4991867;28;20660;-66
2023/06/20 02:46:11;;;;;;;15.70;13.17;;;;;;;;;;5000680;28;20196;-66
2023/06/20 02:48:38;;;;;;;14.27;12.77;;;;;;;;;;5011194;28;20215;-66
2023/06/20 02:51:15;;;;;;;14.77;13.17;;;;;;;;;;4993921;28;20243;-66
2023/06/20 02:53:49;;;;;;;14.17;12.73;;;;;;;;;;4975951;28;20181;-66
2023/06/20 02:56:33;;;;;;;13.60;12.20;;;;;;;;;;4976761;28;20188;-66
2023/06/20 02:59:00;;;;;;;13.57;12.27;;;;;;;;;;5002316;28;20258;-67
2023/06/20 03:01:28;;;;;;;14.40;12.90;;;;;;;;;;5009877;28;20200;-66
2023/06/20 03:03:56;;;;;;;14.77;13.37;;;;;;;;;;4992087;28;20192;-66
2023/06/20 03:06:26;;;;;;;15.67;13.07;;;;;;;;;;4994593;28;20288;-66
2023/06/20 03:08:55;;;;;;;14.30;12.60;;;;;;;;;;4974385;28;20259;-66
2023/06/20 03:11:22;;;;;;;14.53;13.00;;;;;;;;;;5003377;28;20203;-67
2023/06/20 03:13:49;;;;;;;14.43;12.93;;;;;;;;;;4993510;28;20227;-65
2023/06/20 03:16:16;;;;;;;14.37;12.87;;;;;;;;;;4991530;28;20292;-67
2023/06/20 03:18:43;;;;;;;15.07;12.97;;;;;;;;;;4998121;28;20199;-64
2023/06/20 03:21:10;;;;;;;13.30;11.90;;;;;;;;;;4990516;28;20287;-64
2023/06/20 03:23:56;;;;;;;14.20;12.77;;;;;;;;;;5018148;28;20200;-64
2023/06/20 03:26:24;;;;;;;15.10;12.90;;;;;;;;;;4988836;28;20293;-65
2023/06/20 03:28:50;;;;;;;13.30;11.90;;;;;;;;;;4990842;28;20692;-65
2023/06/20 03:31:18;;;;;;;15.07;12.00;;;;;;;;;;4993176;28;20652;-65
2023/06/20 03:33:45;;;;;;;14.53;12.20;;;;;;;;;;4987140;28;20196;-64
2023/06/20 03:36:15;;;;;;;13.53;12.13;;;;;;;;;;4974241;28;20650;-67
2023/06/20 03:38:42;;;;;;;14.07;11.67;;;;;;;;;;4976980;28;20188;-67
2023/06/20 03:41:10;;;;;;;15.63;12.77;;;;;;;;;;5006875;28;20208;-67
2023/06/20 03:43:37;;;;;;;15.40;13.43;;;;;;;;;;4996718;28;20913;-70
2023/06/20 03:46:04;;;;;;;16.10;12.50;;;;;;;;;;4980749;28;20208;-71
2023/06/20 03:48:31;;;;;;;15.87;13.13;;;;;;;;;;4979332;28;20597;-71
2023/06/20 03:51:00;;;;;;;23.50;15.70;;;;;;;;;;4990466;28;20289;-70
2023/06/20 03:53:27;;;;;;;19.37;14.73;;;;;;;;;;4977572;28;20193;-71
2023/06/20 03:55:54;;;;;;;19.03;13.20;;;;;;;;;;4989667;28;20663;-71
2023/06/20 03:58:22;;;;;;;24.97;14.53;;;;;;;;;;4989292;28;20235;-72
2023/06/20 04:00:51;;;;;;;18.60;14.00;;;;;;;;;;5006381;28;20227;-73
2023/06/20 04:03:18;;;;;;;15.90;14.00;;;;;;;;;;4997820;28;20193;-71
2023/06/20 04:06:03;;;;;;;19.27;14.67;;;;;;;;;;4993129;28;20184;-72
2023/06/20 04:08:31;;;;;;;17.70;13.67;;;;;;;;;;4988723;28;20220;-70
2023/06/20 04:11:15;;;;;;;16.07;14.37;;;;;;;;;;4974965;28;20175;-70
2023/06/20 04:13:44;;;;;;;19.40;14.40;;;;;;;;;;5001873;28;20194;-71
2023/06/20 04:16:12;;;;;;;23.43;15.27;;;;;;;;;;5007019;28;20182;-69
2023/06/20 04:18:40;;;;;;;19.13;15.20;;;;;;;;;;4970554;28;20208;-69
2023/06/20 04:21:07;;;;;;;16.97;14.90;;;;;;;;;;4992648;28;20197;-69
2023/06/20 04:23:34;;;;;;;17.90;16.00;;;;;;;;;;4957543;28;20221;-68
2023/06/20 04:26:02;;;;;;;16.83;15.13;;;;;;;;;;4996017;28;20950;-70
2023/06/20 04:28:29;;;;;;;17.50;14.50;;;;;;;;;;4981564;28;20227;-71
2023/06/20 04:31:13;;;;;;;19.27;15.23;;;;;;;;;;4981430;28;20183;-71
2023/06/20 04:33:43;;;;;;;16.53;14.60;;;;;;;;;;4985778;28;20291;-71
2023/06/20 04:36:14;;;;;;;16.73;14.97;;;;;;;;;;4989732;28;20200;-70
2023/06/20 04:38:44;;;;;;;19.60;15.33;;;;;;;;;;4973625;28;20197;-71
2023/06/20 04:41:11;;;;;;;34.97;15.70;;;;;;;;;;4971610;28;20207;-71
2023/06/20 04:43:39;;;;;;;36.60;16.03;;;;;;;;;;4989616;28;20197;-71
2023/06/20 04:46:06;;;;;;;25.37;15.90;;;;;;;;;;4970036;28;20224;-71
2023/06/20 04:48:35;;;;;;;28.17;15.93;;;;;;;;;;4989962;28;20228;-71
2023/06/20 04:51:02;;;;;;;24.87;14.07;;;;;;;;;;4986688;28;20745;-71
2023/06/20 04:53:29;;;;;;;29.70;15.27;;;;;;;;;;4991733;28;20239;-71
2023/06/20 04:56:15;;;;;;;31.50;14.87;;;;;;;;;;4995504;28;20535;-71
2023/06/20 04:58:45;;;;;;;41.30;15.80;;;;;;;;;;4990354;28;20307;-71
2023/06/20 05:01:14;;;;;;;34.37;15.63;;;;;;;;;;4989403;28;20193;-71
2023/06/20 05:03:42;;;;;;;35.00;15.43;;;;;;;;;;4963440;28;20199;-71
2023/06/20 05:06:17;;;;;;;39.40;15.87;;;;;;;;;;4989406;28;20193;-71
2023/06/20 05:08:44;;;;;;;28.93;15.37;;;;;;;;;;4987917;28;20223;-70
2023/06/20 05:11:11;;;;;;;21.93;14.80;;;;;;;;;;4985166;28;20191;-70
2023/06/20 05:13:38;;;;;;;20.37;13.60;;;;;;;;;;4972489;28;20197;-70
2023/06/20 05:16:22;;;;;;;17.87;12.73;;;;;;;;;;5002649;28;20647;-70
2023/06/20 05:18:49;;;;;;;14.90;11.03;;;;;;;;;;5001722;28;20197;-68
2023/06/20 05:21:16;;;;;;;11.73;10.50;;;;;;;;;;5003138;28;20209;-67
2023/06/20 05:23:43;;;;;;;14.77;10.50;;;;;;;;;;4972663;28;20642;-68
2023/06/20 05:26:10;;;;;;;14.67;9.60;;;;;;;;;;5006431;28;20251;-68
2023/06/20 05:28:37;;;;;;;13.20;10.43;;;;;;;;;;4990138;28;20639;-69
2023/06/20 05:31:04;;;;;;;15.83;10.87;;;;;;;;;;4974288;28;20517;-68
2023/06/20 05:33:31;;;;;;;10.90;9.47;;;;;;;;;;5007218;28;20192;-68
2023/06/20 05:35:58;;;;;;;15.87;10.70;;;;;;;;;;5007534;28;20177;-68
2023/06/20 05:38:25;;;;;;;13.70;10.23;;;;;;;;;;4992154;28;20275;-68
2023/06/20 05:40:54;;;;;;;12.00;9.73;;;;;;;;;;4990668;28;20189;-68
2023/06/20 05:43:21;;;;;;;12.03;8.80;;;;;;;;;;4991616;28;20188;-67
2023/06/20 05:45:48;;;;;;;11.63;9.27;;;;;;;;;;4991993;28;20589;-66
2023/06/20 05:48:15;;;;;;;9.53;8.50;;;;;;;;;;4992784;28;20262;-66
2023/06/20 05:51:00;;;;;;;9.33;8.33;;;;;;;;;;4992941;28;20547;-67
2023/06/20 05:53:27;;;;;;;10.63;8.90;;;;;;;;;;4992857;28;20199;-66
2023/06/20 05:55:54;;;;;;;12.17;8.40;;;;;;;;;;4992915;28;20200;-66
2023/06/20 05:58:20;;;;;;;10.07;9.07;;;;;;;;;;4989309;28;20193;-68
2023/06/20 06:00:49;;;;;;;9.70;8.73;;;;;;;;;;4992792;28;20595;-65
2023/06/20 06:03:15;;;;;;;9.47;7.90;;;;;;;;;;5004492;28;20277;-67
2023/06/20 06:05:42;;;;;;;9.33;8.43;;;;;;;;;;4993621;28;20221;-69
2023/06/20 06:08:09;;;;;;;9.00;8.10;;;;;;;;;;5010200;28;20199;-67
2023/06/20 06:10:37;;;;;;;9.10;8.20;;;;;;;;;;4996944;28;20311;-67
2023/06/20 06:13:03;;;;;;;9.30;8.30;;;;;;;;;;4990728;28;20193;-68
2023/06/20 06:15:33;;;;;;;9.17;8.20;;;;;;;;;;4990812;28;20199;-66
2023/06/20 06:18:00;;;;;;;10.20;9.10;;;;;;;;;;4990827;28;20225;-67
2023/06/20 06:20:29;;;;;;;10.87;8.23;;;;;;;;;;4991398;28;20197;-67
2023/06/20 06:22:56;;;;;;;9.00;8.10;;;;;;;;;;4991057;28;20255;-67
2023/06/20 06:25:23;;;;;;;9.67;8.30;;;;;;;;;;4990362;28;20718;-68
2023/06/20 06:27:49;;;;;;;10.77;8.40;;;;;;;;;;4991019;28;20193;-68
2023/06/20 06:30:19;;;;;;;12.73;8.93;;;;;;;;;;4990669;28;20208;-68
2023/06/20 06:32:47;;;;;;;10.20;8.33;;;;;;;;;;4991096;28;20188;-68
2023/06/20 06:35:15;;;;;;;10.97;8.30;;;;;;;;;;4991103;28;20598;-68
2023/06/20 06:37:42;;;;;;;9.77;8.40;;;;;;;;;;4990362;28;20200;-68
2023/06/20 06:40:10;;;;;;;10.20;7.83;;;;;;;;;;4990526;28;20181;-67
2023/06/20 06:42:37;;;;;;;10.20;7.83;;;;;;;;;;4990497;28;20896;-68
2023/06/20 06:45:04;;;;;;;11.23;8.20;;;;;;;;;;4973448;28;20192;-67
2023/06/20 06:47:49;;;;;;;11.93;8.10;;;;;;;;;;4990719;28;20194;-67
2023/06/20 06:50:16;;;;;;;9.63;7.40;;;;;;;;;;4990207;28;20226;-67
2023/06/20 06:53:01;;;;;;;10.70;7.20;;;;;;;;;;5001567;28;20181;-68
2023/06/20 06:55:28;;;;;;;9.53;7.20;;;;;;;;;;4989911;28;20198;-68
2023/06/20 06:58:12;;;;;;;11.27;7.30;;;;;;;;;;5009784;28;20167;-67
2023/06/20 07:00:38;;;;;;;9.23;6.93;;;;;;;;;;5011040;28;20230;-66
2023/06/20 07:03:08;;;;;;;9.40;7.20;;;;;;;;;;5011298;28;20275;-66
2023/06/20 07:05:35;;;;;;;7.00;6.23;;;;;;;;;;5010941;28;20556;-66
2023/06/20 07:08:02;;;;;;;7.13;6.30;;;;;;;;;;5010863;28;20192;-66
2023/06/20 07:10:47;;;;;;;7.00;6.40;;;;;;;;;;5010673;28;20173;-67
2023/06/20 07:13:17;;;;;;;11.93;6.37;;;;;;;;;;5010733;28;20200;-67
2023/06/20 07:15:44;;;;;;;7.53;6.20;;;;;;;;;;5010574;28;20663;-67
2023/06/20 07:18:10;;;;;;;7.10;6.00;;;;;;;;;;5011098;28;20227;-67
2023/06/20 07:20:37;;;;;;;8.00;5.83;;;;;;;;;;5010579;28;20629;-67
2023/06/20 07:23:04;;;;;;;8.60;6.50;;;;;;;;;;5010306;28;20190;-67
2023/06/20 07:25:31;;;;;;;11.93;6.07;;;;;;;;;;4992695;28;20193;-67
2023/06/20 07:27:57;;;;;;;9.60;6.10;;;;;;;;;;5010659;28;20191;-67
2023/06/20 07:30:25;;;;;;;7.27;6.13;;;;;;;;;;5010234;28;20681;-68
2023/06/20 07:32:52;;;;;;;8.37;6.70;;;;;;;;;;5010870;28;20284;-67
2023/06/20 07:35:19;;;;;;;7.73;5.83;;;;;;;;;;5010558;28;20207;-67
2023/06/20 07:38:03;;;;;;;7.13;5.97;;;;;;;;;;5010255;28;20197;-67
2023/06/20 07:40:30;;;;;;;6.60;6.00;;;;;;;;;;5010288;28;20179;-67
2023/06/20 07:43:14;;;;;;;6.60;6.00;;;;;;;;;;5010388;28;20199;-67
2023/06/20 07:45:40;;;;;;;7.53;5.93;;;;;;;;;;5010209;28;20234;-67
2023/06/20 07:48:07;;;;;;;7.67;6.50;;;;;;;;;;5010620;28;20188;-67
2023/06/20 07:50:34;;;;;;;9.07;6.50;;;;;;;;;;5010091;28;20311;-67
2023/06/20 07:53:01;;;;;;;7.17;6.00;;;;;;;;;;4997402;28;20215;-67
2023/06/20 07:55:44;;;;;;;6.70;6.00;;;;;;;;;;4990306;28;20317;-67
2023/06/20 07:58:11;;;;;;;9.10;7.00;;;;;;;;;;4990562;28;20220;-67
2023/06/20 08:00:56;;;;;;;8.30;6.40;;;;;;;;;;4990623;28;20172;-67
2023/06/20 08:03:24;;;;;;;6.67;6.07;;;;;;;;;;4990435;28;20224;-67
2023/06/20 08:05:52;;;;;;;6.80;6.20;;;;;;;;;;4990484;28;20288;-67
2023/06/20 08:08:18;;;;;;;7.67;6.37;;;;;;;;;;4990235;28;20182;-67
2023/06/20 08:10:45;;;;;;;7.70;7.00;;;;;;;;;;4989099;28;20620;-66
2023/06/20 08:13:12;;;;;;;8.00;6.67;;;;;;;;;;4990378;28;20218;-66
2023/06/20 08:15:39;;;;;;;7.57;6.87;;;;;;;;;;4990051;28;20553;-66
2023/06/20 08:18:05;;;;;;;8.43;6.83;;;;;;;;;;4990277;28;20788;-66
2023/06/20 08:20:32;;;;;;;7.10;6.40;;;;;;;;;;4989982;28;20612;-67
2023/06/20 08:22:59;;;;;;;8.27;6.63;;;;;;;;;;4989921;28;20196;-67
2023/06/20 08:25:26;;;;;;;8.63;6.80;;;;;;;;;;4989899;28;20201;-67
2023/06/20 08:27:53;;;;;;;7.43;6.63;;;;;;;;;;4989963;28;20203;-67
2023/06/20 08:30:40;;;;;;;7.23;6.50;;;;;;;;;;4989654;28;20242;-67
2023/06/20 08:33:06;;;;;;;7.50;6.80;;;;;;;;;;4988994;28;20560;-67
2023/06/20 08:35:33;;;;;;;7.13;6.43;;;;;;;;;;4989721;28;20195;-67
2023/06/20 08:38:00;;;;;;;7.87;6.60;;;;;;;;;;4989323;28;20255;-68
2023/06/20 08:40:28;;;;;;;7.93;7.13;;;;;;;;;;4989481;28;20612;-67
2023/06/20 08:42:55;;;;;;;7.23;6.47;;;;;;;;;;4989886;28;20727;-67
2023/06/20 08:45:22;;;;;;;8.70;6.80;;;;;;;;;;4989676;28;20351;-67
2023/06/20 08:47:58;;;;;;;7.70;6.70;;;;;;;;;;4988960;28;20189;-67
2023/06/20 08:50:25;;;;;;;8.00;7.20;;;;;;;;;;4989325;28;20216;-68
2023/06/20 08:52:55;;;;;;;6.83;6.20;;;;;;;;;;4989329;28;20251;-68
2023/06/20 08:55:22;;;;;;;8.60;7.80;;;;;;;;;;4989647;28;20192;-67
2023/06/20 08:57:51;;;;;;;7.90;7.20;;;;;;;;;;4972534;28;20192;-68
2023/06/20 09:00:36;;;;;;;6.90;6.20;;;;;;;;;;4989363;28;20172;-67
2023/06/20 09:03:02;;;;;;;9.23;7.57;;;;;;;;;;4972615;28;20204;-67
2023/06/20 09:05:33;;;;;;;8.87;7.40;;;;;;;;;;4989253;28;20204;-68
2023/06/20 09:08:00;;;;;;;7.60;6.90;;;;;;;;;;4988979;28;20195;-67
2023/06/20 09:10:29;;;;;;;7.23;6.50;;;;;;;;;;4988936;28;20220;-67
2023/06/20 09:13:13;;;;;;;8.00;7.20;;;;;;;;;;4974887;28;20175;-67
2023/06/20 09:15:41;;;;;;;8.30;7.50;;;;;;;;;;4971592;28;20193;-67
2023/06/20 09:18:26;;;;;;;7.50;6.90;;;;;;;;;;4989053;28;20215;-67
2023/06/20 09:20:53;;;;;;;8.10;7.30;;;;;;;;;;4972662;28;20200;-67
2023/06/20 09:23:37;;;;;;;7.57;6.87;;;;;;;;;;4974318;28;20232;-67
2023/06/20 09:26:14;;;;;;;9.47;7.73;;;;;;;;;;4989098;28;20189;-67
2023/06/20 09:29:09;;;;;;;8.23;7.27;;;;;;;;;;4974655;28;20207;-67
2023/06/20 09:31:48;;;;;;;7.77;7.07;;;;;;;;;;4988982;28;20220;-67
2023/06/20 09:34:33;;;;;;;7.40;6.70;;;;;;;;;;4989168;28;20172;-68
2023/06/20 09:37:00;;;;;;;7.77;6.73;;;;;;;;;;4989023;28;20197;-67
2023/06/20 09:39:28;;;;;;;7.87;7.07;;;;;;;;;;4988683;28;20619;-68
2023/06/20 09:41:55;;;;;;;7.67;6.90;;;;;;;;;;4972398;28;20196;-68
2023/06/20 09:44:23;;;;;;;7.63;6.93;;;;;;;;;;4989071;28;20289;-67
2023/06/20 09:47:07;;;;;;;8.30;7.27;;;;;;;;;;4989175;28;20180;-67
2023/06/20 09:49:35;;;;;;;7.33;6.63;;;;;;;;;;4971520;28;20205;-68
2023/06/20 09:52:19;;;;;;;7.97;7.17;;;;;;;;;;4980829;28;20180;-68
2023/06/20 09:54:46;;;;;;;7.43;6.83;;;;;;;;;;5008467;28;20314;-68
2023/06/20 09:57:15;;;;;;;7.97;7.17;;;;;;;;;;5008834;28;20189;-68
2023/06/20 09:59:41;;;;;;;7.17;6.50;;;;;;;;;;5008888;28;20226;-68
2023/06/20 10:02:09;;;;;;;8.93;7.40;;;;;;;;;;5008502;28;20184;-67
2023/06/20 10:04:42;;;;;;;7.13;6.43;;;;;;;;;;5008465;28;21044;-68
2023/06/20 10:07:11;;;;;;;7.50;6.90;;;;;;;;;;5007151;28;20237;-67
2023/06/20 10:09:39;;;;;;;7.10;6.40;;;;;;;;;;4991015;28;20570;-68
2023/06/20 10:12:07;;;;;;;7.87;7.07;;;;;;;;;;5008453;28;20241;-67
2023/06/20 10:14:33;;;;;;;8.13;7.40;;;;;;;;;;4991093;28;20721;-68
2023/06/20 10:17:07;;;;;;;7.87;7.17;;;;;;;;;;5008114;28;20231;-68
2023/06/20 10:19:47;;;;;;;8.07;7.30;;;;;;;;;;4991088;28;20274;-67
2023/06/20 10:22:14;;;;;;;7.47;6.77;;;;;;;;;;4990662;28;20714;-68
2023/06/20 10:24:41;;;;;;;7.50;6.80;;;;;;;;;;5008325;28;20184;-67
2023/06/20 10:27:08;;;;;;;8.20;6.63;;;;;;;;;;5010331;28;20212;-67
2023/06/20 10:29:39;;;;;;;8.30;6.87;;;;;;;;;;4994245;28;20753;-68
2023/06/20 10:32:06;;;;;;;7.17;6.47;;;;;;;;;;5011758;28;20271;-68
2023/06/20 10:34:34;;;;;;;12.27;7.13;;;;;;;;;;5011648;28;20196;-67
2023/06/20 10:37:21;;;;;;;7.47;6.77;;;;;;;;;;5011435;28;20168;-69
2023/06/20 10:39:52;;;;;;;7.33;6.67;;;;;;;;;;5011651;28;20192;-68
2023/06/20 10:42:31;;;;;;;7.30;6.60;;;;;;;;;;5011858;28;20590;-68
2023/06/20 10:45:17;;;;;;;15.07;7.70;;;;;;;;;;5011754;28;20180;-68
2023/06/20 10:48:04;;;;;;;8.00;7.30;;;;;;;;;;5011922;28;20513;-68
2023/06/20 10:50:31;;;;;;;7.87;6.93;;;;;;;;;;5011475;28;20220;-68
2023/06/20 10:52:58;;;;;;;7.40;6.27;;;;;;;;;;4981838;28;20525;-68
2023/06/20 10:55:26;;;;;;;7.60;7.00;;;;;;;;;;4991674;28;20251;-67
2023/06/20 10:57:53;;;;;;;7.73;7.03;;;;;;;;;;4974621;28;20244;-67
2023/06/20 11:00:21;;;;;;;7.17;6.57;;;;;;;;;;4991425;28;20275;-67
2023/06/20 11:02:48;;;;;;;7.30;6.53;;;;;;;;;;4992041;28;20603;-68
2023/06/20 11:05:16;;;;;;;7.73;7.00;;;;;;;;;;4991717;28;20280;-68
2023/06/20 11:08:00;;;;;;;8.03;7.17;;;;;;;;;;4991349;28;20226;-68
2023/06/20 11:10:30;;;;;;;7.33;6.60;;;;;;;;;;4974025;28;20708;-68
2023/06/20 11:13:14;;;;;;;7.23;6.63;;;;;;;;;;4991257;28;20188;-68
2023/06/20 11:15:41;;;;;;;9.63;7.23;;;;;;;;;;4991150;28;20188;-68
2023/06/20 11:18:08;;;;;;;7.67;7.00;;;;;;;;;;4991692;28;20216;-71
2023/06/20 11:20:39;;;;;;;7.60;6.90;;;;;;;;;;4995628;28;20250;-72
2023/06/20 11:23:07;;;;;;;16.67;8.20;;;;;;;;;;4990702;28;20698;-71
2023/06/20 11:25:35;;;;;;;7.73;6.90;;;;;;;;;;4990633;28;20551;-70
2023/06/20 11:28:05;;;;;;;7.63;7.03;;;;;;;;;;4995041;28;20616;-70
2023/06/20 11:30:33;;;;;;;7.80;6.50;;;;;;;;;;4988355;28;20240;-70
2023/06/20 11:33:00;;;;;;;7.50;6.80;;;;;;;;;;4989638;28;20203;-72
2023/06/20 11:35:42;;;;;;;7.40;6.80;;;;;;;;;;4993923;28;20224;-72
2023/06/20 11:38:27;;;;;;;7.77;6.93;;;;;;;;;;5007336;28;20182;-71
2023/06/20 11:41:04;;;;;;;7.67;6.87;;;;;;;;;;4976496;28;20693;-71
2023/06/20 11:43:54;;;;;;;7.63;6.83;;;;;;;;;;4979096;28;20701;-71
2023/06/20 11:46:21;;;;;;;7.80;7.10;;;;;;;;;;4975722;28;20202;-71
2023/06/20 11:49:05;;;;;;;7.47;6.30;;;;;;;;;;4992994;28;20184;-71
2023/06/20 11:51:32;;;;;;;7.37;6.57;;;;;;;;;;4992082;28;20294;-69
2023/06/20 11:54:08;;;;;;;8.73;7.17;;;;;;;;;;5004553;28;20202;-72
2023/06/20 11:56:35;;;;;;;10.00;6.27;;;;;;;;;;4979661;28;20199;-72
2023/06/20 11:59:03;;;;;;;6.23;5.73;;;;;;;;;;5028285;28;20947;-71
2023/06/20 12:01:32;;;;;;;6.80;6.10;;;;;;;;;;5001798;28;20302;-72
2023/06/20 12:04:03;;;;;;;7.57;6.77;;;;;;;;;;4989712;28;20203;-69
2023/06/20 12:06:30;;;;;;;6.63;6.07;;;;;;;;;;4988079;28;20478;-70
2023/06/20 12:08:58;;;;;;;6.93;6.33;;;;;;;;;;4989876;28;20716;-70
2023/06/20 12:11:25;;;;;;;6.80;6.13;;;;;;;;;;4987803;28;20324;-71
2023/06/20 12:14:09;;;;;;;7.53;6.40;;;;;;;;;;4989671;28;20173;-71
2023/06/20 12:16:36;;;;;;;13.07;6.17;;;;;;;;;;4967741;28;20227;-71
2023/06/20 12:19:03;;;;;;;12.17;6.60;;;;;;;;;;4969928;28;20363;-72
2023/06/20 12:21:30;;;;;;;7.90;6.20;;;;;;;;;;4970131;28;20531;-71
2023/06/20 12:23:57;;;;;;;6.70;5.93;;;;;;;;;;4970801;28;20225;-72
2023/06/20 12:26:24;;;;;;;7.13;6.43;;;;;;;;;;4969731;28;20239;-70
2023/06/20 12:28:51;;;;;;;6.70;6.07;;;;;;;;;;4970422;28;20541;-71
2023/06/20 12:31:18;;;;;;;7.77;6.33;;;;;;;;;;4952825;28;20248;-71
2023/06/20 12:33:45;;;;;;;6.90;6.30;;;;;;;;;;4970024;28;20593;-70
2023/06/20 12:36:12;;;;;;;10.87;7.10;;;;;;;;;;4969992;28;20271;-72
2023/06/20 12:38:40;;;;;;;6.97;6.27;;;;;;;;;;4936969;28;20180;-70
2023/06/20 12:41:25;;;;;;;7.17;6.50;;;;;;;;;;4955195;28;20181;-71
2023/06/20 12:43:51;;;;;;;7.30;6.70;;;;;;;;;;4966889;28;20220;-72
2023/06/20 12:46:18;;;;;;;7.87;7.17;;;;;;;;;;4969498;28;20295;-69
2023/06/20 12:48:45;;;;;;;8.13;7.37;;;;;;;;;;4952034;28;20209;-71
2023/06/20 12:51:14;;;;;;;7.77;7.07;;;;;;;;;;4969347;28;20212;-72
2023/06/20 12:53:41;;;;;;;7.50;6.90;;;;;;;;;;4952475;28;20594;-72
2023/06/20 12:56:08;;;;;;;7.67;6.97;;;;;;;;;;4969569;28;20235;-70
2023/06/20 12:58:35;;;;;;;20.93;7.50;;;;;;;;;;4952685;28;20191;-71
2023/06/20 13:01:02;;;;;;;7.80;7.00;;;;;;;;;;4969594;28;21040;-71
2023/06/20 13:03:29;;;;;;;7.53;6.70;;;;;;;;;;4967836;28;20229;-72
2023/06/20 13:05:56;;;;;;;7.70;7.00;;;;;;;;;;4949549;28;20205;-72
2023/06/20 13:08:23;;;;;;;7.93;7.07;;;;;;;;;;4973648;28;20180;-73
2023/06/20 13:10:50;;;;;;;7.07;6.47;;;;;;;;;;4981916;28;20320;-73
2023/06/20 13:13:17;;;;;;;8.63;7.30;;;;;;;;;;4984070;28;20192;-71
2023/06/20 13:15:44;;;;;;;7.40;6.80;;;;;;;;;;4992434;28;20196;-74
2023/06/20 13:18:12;;;;;;;8.00;6.40;;;;;;;;;;4972001;28;20231;-74
2023/06/20 13:20:39;;;;;;;7.50;6.80;;;;;;;;;;4965660;28;20205;-75
2023/06/20 13:23:06;;;;;;;7.80;6.27;;;;;;;;;;4969167;28;20259;-73
2023/06/20 13:25:33;;;;;;;7.37;6.53;;;;;;;;;;4969135;28;20203;-74
2023/06/20 13:28:00;;;;;;;7.50;6.80;;;;;;;;;;4969328;28;20193;-73
2023/06/20 13:30:26;;;;;;;7.30;6.70;;;;;;;;;;4956092;28;20239;-72
2023/06/20 13:32:54;;;;;;;7.23;6.63;;;;;;;;;;4972856;28;20205;-72
2023/06/20 13:35:22;;;;;;;6.27;5.67;;;;;;;;;;4954013;28;20202;-72
2023/06/20 13:37:51;;;;;;;8.33;6.80;;;;;;;;;;4974954;28;20225;-71
2023/06/20 13:40:23;;;;;;;8.30;6.67;;;;;;;;;;4973169;28;20742;-73
2023/06/20 13:42:51;;;;;;;6.40;5.80;;;;;;;;;;4969124;28;20282;-75
2023/06/20 13:45:36;;;;;;;6.80;6.17;;;;;;;;;;4968607;28;20191;-71
2023/06/20 13:48:05;;;;;;;6.93;6.33;;;;;;;;;;4968709;28;20210;-73
2023/06/20 13:50:37;;;;;;;6.73;5.83;;;;;;;;;;4951862;28;20318;-71
2023/06/20 13:53:07;;;;;;;6.87;6.17;;;;;;;;;;4981338;28;20196;-71
2023/06/20 13:55:34;;;;;;;6.73;5.97;;;;;;;;;;4988064;28;20257;-70
2023/06/20 13:58:00;;;;;;;8.53;6.43;;;;;;;;;;4988222;28;20196;-71
2023/06/20 14:00:27;;;;;;;6.53;5.93;;;;;;;;;;4984295;28;20569;-74
2023/06/20 14:02:56;;;;;;;6.77;6.10;;;;;;;;;;4973178;28;20666;-72
2023/06/20 14:05:23;;;;;;;7.40;6.80;;;;;;;;;;4976620;28;20244;-72
2023/06/20 14:07:50;;;;;;;7.47;6.10;;;;;;;;;;4990505;28;20261;-73
2023/06/20 14:10:34;;;;;;;7.33;6.20;;;;;;;;;;4986115;28;20209;-73
2023/06/20 14:13:01;;;;;;;7.10;6.40;;;;;;;;;;4981318;28;20259;-71
2023/06/20 14:15:46;;;;;;;6.47;5.97;;;;;;;;;;4984416;28;20641;-73
2023/06/20 14:18:13;;;;;;;6.93;6.23;;;;;;;;;;4990311;28;20228;-71
2023/06/20 14:20:40;;;;;;;6.23;5.73;;;;;;;;;;4991872;28;20201;-73
2023/06/20 14:23:07;;;;;;;11.20;6.60;;;;;;;;;;4991666;28;20196;-74
2023/06/20 14:25:34;;;;;;;6.77;6.17;;;;;;;;;;4974605;28;20196;-72
2023/06/20 14:28:02;;;;;;;6.70;6.10;;;;;;;;;;4992012;28;20212;-74
2023/06/20 14:30:28;;;;;;;7.00;5.97;;;;;;;;;;4991699;28;20208;-72
2023/06/20 14:32:56;;;;;;;6.87;6.23;;;;;;;;;;4992110;28;20837;-73
2023/06/20 14:35:23;;;;;;;7.00;6.20;;;;;;;;;;4991579;28;20196;-74
2023/06/20 14:37:50;;;;;;;15.00;7.70;;;;;;;;;;4991883;28;20189;-72
2023/06/20 14:40:17;;;;;;;7.07;6.37;;;;;;;;;;4991601;28;20196;-71
2023/06/20 14:42:44;;;;;;;7.23;6.53;;;;;;;;;;4990617;28;20233;-71
2023/06/20 14:45:11;;;;;;;6.47;5.87;;;;;;;;;;4991662;28;20201;-71
2023/06/20 14:47:38;;;;;;;6.70;6.00;;;;;;;;;;4991404;28;20181;-71
2023/06/20 14:50:24;;;;;;;6.83;6.10;;;;;;;;;;4990166;28;20217;-74
2023/06/20 14:53:11;;;;;;;6.57;5.83;;;;;;;;;;4977037;28;20292;-70
2023/06/20 14:55:37;;;;;;;8.20;6.10;;;;;;;;;;4997061;28;20196;-70
2023/06/20 14:58:04;;;;;;;7.03;5.83;;;;;;;;;;5009850;28;20188;-72
2023/06/20 15:00:32;;;;;;;6.50;5.33;;;;;;;;;;5005627;28;20197;-71
2023/06/20 15:02:59;;;;;;;6.37;5.77;;;;;;;;;;4973897;28;20235;-73
2023/06/20 15:05:26;;;;;;;6.40;5.80;;;;;;;;;;4990632;28;20216;-72
2023/06/20 15:07:53;;;;;;;7.07;5.83;;;;;;;;;;4989122;28;20291;-72
2023/06/20 15:10:23;;;;;;;6.53;5.80;;;;;;;;;;4990334;28;20216;-70
2023/06/20 15:12:50;;;;;;;6.87;6.07;;;;;;;;;;4990092;28;20615;-71
2023/06/20 15:15:18;;;;;;;7.57;6.00;;;;;;;;;;4990526;28;20266;-71
2023/06/20 15:17:44;;;;;;;7.57;5.90;;;;;;;;;;4991349;28;20283;-73
2023/06/20 15:20:12;;;;;;;6.57;5.60;;;;;;;;;;4992347;28;20199;-72
2023/06/20 15:22:39;;;;;;;6.60;6.00;;;;;;;;;;5010754;28;20197;-72